sensor_id;sensor_type;location;lat;lon;timestamp;pressure;altitude;pressure_sealevel;temperature;humidity
31771;BME280;18343;50.152;8.182;2023-02-26T00:00:52;97108.16;;;1.27;68.09
31771;BME280;18343;50.152;8.182;2023-02-26T00:03:40;97111.78;;;1.26;67.61
31771;BME280;18343;50.152;8.182;2023-02-26T00:06:26;97115.41;;;1.25;67.90
31771;BME280;18343;50.152;8.182;2023-02-26T00:09:11;97113.03;;;1.22;67.74
31771;BME280;18343;50.152;8.182;2023-02-26T00:11:56;97111.50;;;1.19;67.86
31771;BME280;18343;50.152;8.182;2023-02-26T00:14:43;97117.91;;;1.17;67.57
31771;BME280;18343;50.152;8.182;2023-02-26T00:17:41;97121.25;;;1.19;67.93
31771;BME280;18343;50.152;8.182;2023-02-26T00:20:28;97123.22;;;1.17;67.54
31771;BME280;18343;50.152;8.182;2023-02-26T00:23:13;97119.03;;;1.14;68.45
31771;BME280;18343;50.152;8.182;2023-02-26T00:25:58;97125.03;;;1.16;68.47
31771;BME280;18343;50.152;8.182;2023-02-26T00:28:44;97130.88;;;1.10;67.65
31771;BME280;18343;50.152;8.182;2023-02-26T00:31:32;97130.34;;;1.07;68.17
31771;BME280;18343;50.152;8.182;2023-02-26T00:34:17;97138.72;;;1.02;68.11
31771;BME280;18343;50.152;8.182;2023-02-26T00:37:13;97131.63;;;1.02;68.37
31771;BME280;18343;50.152;8.182;2023-02-26T00:40:13;97140.81;;;0.98;68.25
31771;BME280;18343;50.152;8.182;2023-02-26T00:42:59;97139.13;;;0.97;68.85
31771;BME280;18343;50.152;8.182;2023-02-26T00:45:52;97125.91;;;0.97;69.04
31771;BME280;18343;50.152;8.182;2023-02-26T00:48:49;97128.69;;;1.06;69.67
31771;BME280;18343;50.152;8.182;2023-02-26T00:51:45;97133.38;;;1.12;69.89
31771;BME280;18343;50.152;8.182;2023-02-26T00:54:32;97138.28;;;1.16;70.12
31771;BME280;18343;50.152;8.182;2023-02-26T00:57:16;97135.75;;;1.24;70.09
31771;BME280;18343;50.152;8.182;2023-02-26T01:00:01;97143.41;;;1.27;70.07
31771;BME280;18343;50.152;8.182;2023-02-26T01:02:49;97146.19;;;1.35;70.27
31771;BME280;18343;50.152;8.182;2023-02-26T01:05:36;97136.97;;;1.40;70.22
31771;BME280;18343;50.152;8.182;2023-02-26T01:08:26;97140.88;;;1.45;70.41
31771;BME280;18343;50.152;8.182;2023-02-26T01:11:14;97143.50;;;1.45;69.99
31771;BME280;18343;50.152;8.182;2023-02-26T01:14:00;97147.41;;;1.41;70.38
31771;BME280;18343;50.152;8.182;2023-02-26T01:16:52;97148.94;;;1.44;70.39
31771;BME280;18343;50.152;8.182;2023-02-26T01:19:46;97144.34;;;1.46;70.30
31771;BME280;18343;50.152;8.182;2023-02-26T01:22:39;97160.78;;;1.49;70.71
31771;BME280;18343;50.152;8.182;2023-02-26T01:25:31;97151.31;;;1.47;69.90
31771;BME280;18343;50.152;8.182;2023-02-26T01:28:21;97161.91;;;1.47;70.17
31771;BME280;18343;50.152;8.182;2023-02-26T01:31:14;97162.19;;;1.53;70.53
31771;BME280;18343;50.152;8.182;2023-02-26T01:34:07;97157.88;;;1.52;70.15
31771;BME280;18343;50.152;8.182;2023-02-26T01:36:59;97168.31;;;1.54;70.54
31771;BME280;18343;50.152;8.182;2023-02-26T01:40:27;97160.78;;;1.59;70.31
31771;BME280;18343;50.152;8.182;2023-02-26T01:43:23;97167.91;;;1.58;70.99
31771;BME280;18343;50.152;8.182;2023-02-26T01:46:21;97165.66;;;1.63;71.02
31771;BME280;18343;50.152;8.182;2023-02-26T01:49:13;97169.44;;;1.51;70.65
31771;BME280;18343;50.152;8.182;2023-02-26T01:52:00;97171.81;;;1.45;70.89
31771;BME280;18343;50.152;8.182;2023-02-26T01:54:46;97178.81;;;1.36;72.22
31771;BME280;18343;50.152;8.182;2023-02-26T01:57:31;97178.38;;;1.41;71.58
31771;BME280;18343;50.152;8.182;2023-02-26T02:00:17;97180.88;;;1.42;71.93
31771;BME280;18343;50.152;8.182;2023-02-26T02:03:02;97183.81;;;1.39;72.35
31771;BME280;18343;50.152;8.182;2023-02-26T02:05:51;97189.81;;;1.41;72.81
31771;BME280;18343;50.152;8.182;2023-02-26T02:08:37;97176.97;;;1.46;72.56
31771;BME280;18343;50.152;8.182;2023-02-26T02:11:23;97178.78;;;1.46;74.10
31771;BME280;18343;50.152;8.182;2023-02-26T02:14:14;97177.66;;;1.48;73.34
31771;BME280;18343;50.152;8.182;2023-02-26T02:17:13;97176.41;;;1.52;73.22
31771;BME280;18343;50.152;8.182;2023-02-26T02:20:35;97178.66;;;1.47;72.88
31771;BME280;18343;50.152;8.182;2023-02-26T02:23:31;97180.19;;;1.40;73.01
31771;BME280;18343;50.152;8.182;2023-02-26T02:26:49;97184.78;;;1.38;73.23
31771;BME280;18343;50.152;8.182;2023-02-26T02:30:01;97187.88;;;1.33;73.58
31771;BME280;18343;50.152;8.182;2023-02-26T02:32:56;97195.00;;;1.33;73.65
31771;BME280;18343;50.152;8.182;2023-02-26T02:35:45;97200.16;;;1.34;74.10
31771;BME280;18343;50.152;8.182;2023-02-26T02:38:36;97195.69;;;1.35;74.12
31771;BME280;18343;50.152;8.182;2023-02-26T02:41:26;97208.25;;;1.33;74.03
31771;BME280;18343;50.152;8.182;2023-02-26T02:44:16;97202.38;;;1.29;74.04
31771;BME280;18343;50.152;8.182;2023-02-26T02:47:03;97204.34;;;1.27;74.24
31771;BME280;18343;50.152;8.182;2023-02-26T02:49:54;97205.72;;;1.22;74.69
31771;BME280;18343;50.152;8.182;2023-02-26T02:52:44;97207.41;;;1.23;74.32
31771;BME280;18343;50.152;8.182;2023-02-26T02:55:35;97208.53;;;1.20;75.04
31771;BME280;18343;50.152;8.182;2023-02-26T02:58:25;97204.75;;;1.23;74.88
31771;BME280;18343;50.152;8.182;2023-02-26T03:01:16;97210.34;;;1.20;74.49
31771;BME280;18343;50.152;8.182;2023-02-26T03:04:06;97209.34;;;1.11;74.32
31771;BME280;18343;50.152;8.182;2023-02-26T03:06:54;97213.56;;;1.04;74.59
31771;BME280;18343;50.152;8.182;2023-02-26T03:09:39;97209.06;;;0.95;74.93
31771;BME280;18343;50.152;8.182;2023-02-26T03:12:26;97212.84;;;0.92;74.83
31771;BME280;18343;50.152;8.182;2023-02-26T03:15:12;97217.28;;;0.92;74.78
31771;BME280;18343;50.152;8.182;2023-02-26T03:18:05;97212.13;;;0.90;74.89
31771;BME280;18343;50.152;8.182;2023-02-26T03:21:01;97227.19;;;0.90;74.81
31771;BME280;18343;50.152;8.182;2023-02-26T03:23:58;97230.94;;;0.87;74.88
31771;BME280;18343;50.152;8.182;2023-02-26T03:26:49;97227.06;;;0.82;74.82
31771;BME280;18343;50.152;8.182;2023-02-26T03:29:39;97235.00;;;0.82;74.95
31771;BME280;18343;50.152;8.182;2023-02-26T03:32:30;97240.84;;;0.76;74.66
31771;BME280;18343;50.152;8.182;2023-02-26T03:35:25;97246.25;;;0.74;74.91
31771;BME280;18343;50.152;8.182;2023-02-26T03:38:20;97243.47;;;0.76;74.99
31771;BME280;18343;50.152;8.182;2023-02-26T03:41:10;97243.75;;;0.73;75.38
31771;BME280;18343;50.152;8.182;2023-02-26T03:44:02;97249.75;;;0.75;75.79
31771;BME280;18343;50.152;8.182;2023-02-26T03:46:53;97248.63;;;0.77;75.69
31771;BME280;18343;50.152;8.182;2023-02-26T03:49:47;97258.94;;;0.80;75.95
31771;BME280;18343;50.152;8.182;2023-02-26T03:52:38;97250.72;;;0.83;76.12
31771;BME280;18343;50.152;8.182;2023-02-26T03:55:29;97259.50;;;0.84;76.64
31771;BME280;18343;50.152;8.182;2023-02-26T03:58:18;97262.97;;;0.84;76.49
31771;BME280;18343;50.152;8.182;2023-02-26T04:01:07;97259.34;;;0.85;76.36
31771;BME280;18343;50.152;8.182;2023-02-26T04:03:57;97262.84;;;0.86;76.36
31771;BME280;18343;50.152;8.182;2023-02-26T04:06:43;97271.22;;;0.81;76.00
31771;BME280;18343;50.152;8.182;2023-02-26T04:09:29;97274.13;;;0.78;75.94
31771;BME280;18343;50.152;8.182;2023-02-26T04:12:15;97281.78;;;0.72;75.35
31771;BME280;18343;50.152;8.182;2023-02-26T04:15:07;97291.34;;;0.63;75.38
31771;BME280;18343;50.152;8.182;2023-02-26T04:17:52;97289.09;;;0.58;75.84
31771;BME280;18343;50.152;8.182;2023-02-26T04:20:36;97287.56;;;0.56;76.48
31771;BME280;18343;50.152;8.182;2023-02-26T04:23:21;97288.69;;;0.53;76.54
31771;BME280;18343;50.152;8.182;2023-02-26T04:26:06;97295.66;;;0.54;77.08
31771;BME280;18343;50.152;8.182;2023-02-26T04:28:51;97293.69;;;0.56;76.83
31771;BME280;18343;50.152;8.182;2023-02-26T04:31:36;97297.47;;;0.54;76.67
31771;BME280;18343;50.152;8.182;2023-02-26T04:34:21;97296.31;;;0.47;77.05
31771;BME280;18343;50.152;8.182;2023-02-26T04:37:05;97304.78;;;0.41;77.44
31771;BME280;18343;50.152;8.182;2023-02-26T04:39:50;97302.00;;;0.42;78.09
31771;BME280;18343;50.152;8.182;2023-02-26T04:42:35;97300.84;;;0.35;78.46
31771;BME280;18343;50.152;8.182;2023-02-26T04:45:19;97302.84;;;0.43;78.80
31771;BME280;18343;50.152;8.182;2023-02-26T04:48:09;97308.56;;;0.48;78.41
31771;BME280;18343;50.152;8.182;2023-02-26T04:50:54;97309.81;;;0.44;78.84
31771;BME280;18343;50.152;8.182;2023-02-26T04:53:39;97309.81;;;0.44;78.49
31771;BME280;18343;50.152;8.182;2023-02-26T04:56:23;97312.00;;;0.39;78.38
31771;BME280;18343;50.152;8.182;2023-02-26T04:59:08;97317.16;;;0.40;78.28
31771;BME280;18343;50.152;8.182;2023-02-26T05:01:53;97314.66;;;0.39;77.96
31771;BME280;18343;50.152;8.182;2023-02-26T05:04:42;97310.84;;;0.31;78.32
31771;BME280;18343;50.152;8.182;2023-02-26T05:07:26;97311.28;;;0.27;79.01
31771;BME280;18343;50.152;8.182;2023-02-26T05:10:11;97327.94;;;0.27;79.04
31771;BME280;18343;50.152;8.182;2023-02-26T05:12:56;97326.31;;;0.26;79.11
31771;BME280;18343;50.152;8.182;2023-02-26T05:15:41;97332.69;;;0.24;80.04
31771;BME280;18343;50.152;8.182;2023-02-26T05:18:37;97337.56;;;0.28;80.49
31771;BME280;18343;50.152;8.182;2023-02-26T05:21:25;97343.69;;;0.29;80.32
31771;BME280;18343;50.152;8.182;2023-02-26T05:24:14;97349.56;;;0.32;80.69
31771;BME280;18343;50.152;8.182;2023-02-26T05:26:58;97344.97;;;0.34;80.55
31771;BME280;18343;50.152;8.182;2023-02-26T05:29:43;97348.72;;;0.32;81.29
31771;BME280;18343;50.152;8.182;2023-02-26T05:32:28;97346.19;;;0.30;81.48
31771;BME280;18343;50.152;8.182;2023-02-26T05:35:14;97357.22;;;0.36;81.08
31771;BME280;18343;50.152;8.182;2023-02-26T05:38:00;97352.66;;;0.38;80.99
31771;BME280;18343;50.152;8.182;2023-02-26T05:40:48;97357.69;;;0.41;80.96
31771;BME280;18343;50.152;8.182;2023-02-26T05:43:33;97360.81;;;0.25;81.78
31771;BME280;18343;50.152;8.182;2023-02-26T05:46:17;97369.84;;;0.22;81.68
31771;BME280;18343;50.152;8.182;2023-02-26T05:49:02;97366.34;;;0.22;81.21
31771;BME280;18343;50.152;8.182;2023-02-26T05:51:48;97364.94;;;0.18;81.79
31771;BME280;18343;50.152;8.182;2023-02-26T05:54:34;97372.88;;;0.18;81.35
31771;BME280;18343;50.152;8.182;2023-02-26T05:57:19;97378.66;;;0.12;81.47
31771;BME280;18343;50.152;8.182;2023-02-26T06:00:11;97384.22;;;0.09;81.75
31771;BME280;18343;50.152;8.182;2023-02-26T06:02:58;97377.81;;;0.11;81.67
31771;BME280;18343;50.152;8.182;2023-02-26T06:05:45;97391.03;;;0.11;81.98
31771;BME280;18343;50.152;8.182;2023-02-26T06:08:31;97394.53;;;0.12;81.91
31771;BME280;18343;50.152;8.182;2023-02-26T06:11:17;97395.16;;;0.04;82.22
31771;BME280;18343;50.152;8.182;2023-02-26T06:14:02;97400.56;;;0.03;82.01
31771;BME280;18343;50.152;8.182;2023-02-26T06:16:52;97403.22;;;0.03;81.49
31771;BME280;18343;50.152;8.182;2023-02-26T06:19:37;97408.63;;;0.01;82.41
31771;BME280;18343;50.152;8.182;2023-02-26T06:22:21;97406.53;;;-0.05;82.72
31771;BME280;18343;50.152;8.182;2023-02-26T06:25:12;97416.00;;;-0.03;83.15
31771;BME280;18343;50.152;8.182;2023-02-26T06:28:08;97411.84;;;0.05;83.04
31771;BME280;18343;50.152;8.182;2023-02-26T06:30:53;97421.84;;;0.01;83.36
31771;BME280;18343;50.152;8.182;2023-02-26T06:33:41;97428.63;;;-0.06;83.50
31771;BME280;18343;50.152;8.182;2023-02-26T06:36:26;97434.88;;;-0.07;83.97
31771;BME280;18343;50.152;8.182;2023-02-26T06:39:10;97435.84;;;-0.08;83.84
31771;BME280;18343;50.152;8.182;2023-02-26T06:41:55;97445.94;;;-0.02;83.42
31771;BME280;18343;50.152;8.182;2023-02-26T06:44:41;97433.78;;;-0.05;84.33
31771;BME280;18343;50.152;8.182;2023-02-26T06:47:28;97443.72;;;0.03;83.45
31771;BME280;18343;50.152;8.182;2023-02-26T06:50:17;97443.47;;;0.06;83.76
31771;BME280;18343;50.152;8.182;2023-02-26T06:53:02;97453.97;;;-0.04;84.10
31771;BME280;18343;50.152;8.182;2023-02-26T06:55:49;97449.28;;;0.00;83.97
31771;BME280;18343;50.152;8.182;2023-02-26T06:58:40;97455.97;;;0.04;83.59
31771;BME280;18343;50.152;8.182;2023-02-26T07:01:26;97468.03;;;-0.03;84.38
31771;BME280;18343;50.152;8.182;2023-02-26T07:04:10;97471.28;;;-0.11;84.81
31771;BME280;18343;50.152;8.182;2023-02-26T07:06:59;97470.72;;;-0.14;85.12
31771;BME280;18343;50.152;8.182;2023-02-26T07:09:44;97480.56;;;-0.16;86.45
31771;BME280;18343;50.152;8.182;2023-02-26T07:12:33;97482.53;;;0.03;85.70
31771;BME280;18343;50.152;8.182;2023-02-26T07:15:18;97491.38;;;0.13;85.29
31771;BME280;18343;50.152;8.182;2023-02-26T07:18:07;97496.56;;;0.14;85.25
31771;BME280;18343;50.152;8.182;2023-02-26T07:20:51;97496.81;;;0.11;86.18
31771;BME280;18343;50.152;8.182;2023-02-26T07:23:48;97497.63;;;0.12;86.01
31771;BME280;18343;50.152;8.182;2023-02-26T07:26:33;97501.75;;;0.05;85.79
31771;BME280;18343;50.152;8.182;2023-02-26T07:29:17;97508.41;;;-0.01;85.89
31771;BME280;18343;50.152;8.182;2023-02-26T07:32:03;97516.66;;;0.06;85.54
31771;BME280;18343;50.152;8.182;2023-02-26T07:34:59;97524.94;;;0.01;86.09
31771;BME280;18343;50.152;8.182;2023-02-26T07:37:44;97529.19;;;-0.08;86.34
31771;BME280;18343;50.152;8.182;2023-02-26T07:40:29;97536.94;;;0.05;85.95
31771;BME280;18343;50.152;8.182;2023-02-26T07:43:14;97535.97;;;0.17;86.46
31771;BME280;18343;50.152;8.182;2023-02-26T07:45:59;97536.63;;;0.30;86.48
31771;BME280;18343;50.152;8.182;2023-02-26T07:48:44;97533.34;;;0.38;86.46
31771;BME280;18343;50.152;8.182;2023-02-26T07:51:33;97539.56;;;0.16;88.05
31771;BME280;18343;50.152;8.182;2023-02-26T07:54:25;97540.06;;;0.10;88.52
31771;BME280;18343;50.152;8.182;2023-02-26T07:57:10;97534.88;;;0.20;87.55
31771;BME280;18343;50.152;8.182;2023-02-26T07:59:56;97548.47;;;0.15;88.63
31771;BME280;18343;50.152;8.182;2023-02-26T08:02:43;97542.94;;;0.18;88.35
31771;BME280;18343;50.152;8.182;2023-02-26T08:05:28;97550.69;;;0.31;87.44
31771;BME280;18343;50.152;8.182;2023-02-26T08:08:15;97550.81;;;0.29;87.46
31771;BME280;18343;50.152;8.182;2023-02-26T08:11:00;97545.25;;;0.32;87.76
31771;BME280;18343;50.152;8.182;2023-02-26T08:13:46;97559.31;;;0.01;90.45
31771;BME280;18343;50.152;8.182;2023-02-26T08:16:30;97562.81;;;0.33;88.65
31771;BME280;18343;50.152;8.182;2023-02-26T08:19:17;97555.72;;;0.34;88.78
31771;BME280;18343;50.152;8.182;2023-02-26T08:22:02;97557.50;;;0.45;88.58
31771;BME280;18343;50.152;8.182;2023-02-26T08:24:49;97563.84;;;0.53;87.37
31771;BME280;18343;50.152;8.182;2023-02-26T08:27:38;97567.84;;;0.68;87.57
31771;BME280;18343;50.152;8.182;2023-02-26T08:30:36;97570.22;;;0.51;88.43
31771;BME280;18343;50.152;8.182;2023-02-26T08:33:21;97581.56;;;0.62;88.07
31771;BME280;18343;50.152;8.182;2023-02-26T08:36:10;97567.13;;;0.66;88.45
31771;BME280;18343;50.152;8.182;2023-02-26T08:38:54;97588.16;;;0.68;88.63
31771;BME280;18343;50.152;8.182;2023-02-26T08:41:42;97584.94;;;0.64;88.67
31771;BME280;18343;50.152;8.182;2023-02-26T08:44:27;97597.66;;;0.39;90.95
31771;BME280;18343;50.152;8.182;2023-02-26T08:47:14;97582.19;;;0.55;89.70
31771;BME280;18343;50.152;8.182;2023-02-26T08:49:59;97594.88;;;0.72;90.35
31771;BME280;18343;50.152;8.182;2023-02-26T08:52:44;97590.78;;;0.79;89.30
31771;BME280;18343;50.152;8.182;2023-02-26T08:55:29;97596.06;;;0.79;89.26
31771;BME280;18343;50.152;8.182;2023-02-26T08:58:15;97604.84;;;0.80;89.18
31771;BME280;18343;50.152;8.182;2023-02-26T09:01:00;97602.75;;;0.83;89.05
31771;BME280;18343;50.152;8.182;2023-02-26T09:03:44;97613.34;;;0.83;88.71
31771;BME280;18343;50.152;8.182;2023-02-26T09:06:31;97616.91;;;0.73;88.83
31771;BME280;18343;50.152;8.182;2023-02-26T09:09:16;97618.88;;;0.59;90.08
31771;BME280;18343;50.152;8.182;2023-02-26T09:12:00;97612.94;;;0.35;89.06
31771;BME280;18343;50.152;8.182;2023-02-26T09:14:49;97612.63;;;0.60;88.65
31771;BME280;18343;50.152;8.182;2023-02-26T09:17:35;97626.03;;;1.00;88.69
31771;BME280;18343;50.152;8.182;2023-02-26T09:20:21;97626.16;;;1.20;88.97
31771;BME280;18343;50.152;8.182;2023-02-26T09:23:06;97628.47;;;1.13;88.45
31771;BME280;18343;50.152;8.182;2023-02-26T09:25:52;97627.38;;;1.37;87.82
31771;BME280;18343;50.152;8.182;2023-02-26T09:28:37;97632.69;;;1.37;87.86
31771;BME280;18343;50.152;8.182;2023-02-26T09:31:23;97635.88;;;1.40;87.91
31771;BME280;18343;50.152;8.182;2023-02-26T09:34:08;97643.31;;;1.46;87.61
31771;BME280;18343;50.152;8.182;2023-02-26T09:36:53;97644.22;;;1.56;86.64
31771;BME280;18343;50.152;8.182;2023-02-26T09:39:37;97648.56;;;1.67;87.91
31771;BME280;18343;50.152;8.182;2023-02-26T09:42:40;97653.34;;;1.63;87.99
31771;BME280;18343;50.152;8.182;2023-02-26T09:45:32;97645.38;;;1.63;88.17
31771;BME280;18343;50.152;8.182;2023-02-26T09:48:22;97651.88;;;1.80;87.53
31771;BME280;18343;50.152;8.182;2023-02-26T09:51:14;97644.09;;;1.98;85.68
31771;BME280;18343;50.152;8.182;2023-02-26T09:54:07;97658.53;;;2.05;86.21
31771;BME280;18343;50.152;8.182;2023-02-26T09:57:00;97658.72;;;1.92;84.37
31771;BME280;18343;50.152;8.182;2023-02-26T09:59:47;97659.19;;;1.97;84.93
31771;BME280;18343;50.152;8.182;2023-02-26T10:02:39;97668.38;;;1.93;84.02
31771;BME280;18343;50.152;8.182;2023-02-26T10:05:38;97672.50;;;1.77;85.03
31771;BME280;18343;50.152;8.182;2023-02-26T10:08:32;97681.59;;;1.84;84.85
31771;BME280;18343;50.152;8.182;2023-02-26T10:11:27;97680.00;;;1.72;84.66
31771;BME280;18343;50.152;8.182;2023-02-26T10:14:17;97679.94;;;1.83;85.20
31771;BME280;18343;50.152;8.182;2023-02-26T10:17:07;97676.06;;;1.96;84.82
31771;BME280;18343;50.152;8.182;2023-02-26T10:20:05;97677.00;;;2.26;85.63
31771;BME280;18343;50.152;8.182;2023-02-26T10:23:00;97681.81;;;2.51;84.80
31771;BME280;18343;50.152;8.182;2023-02-26T10:25:49;97684.22;;;2.54;85.07
31771;BME280;18343;50.152;8.182;2023-02-26T10:28:55;97690.63;;;2.52;83.94
31771;BME280;18343;50.152;8.182;2023-02-26T10:31:56;97704.22;;;2.78;83.73
31771;BME280;18343;50.152;8.182;2023-02-26T10:34:53;97688.00;;;2.61;83.11
31771;BME280;18343;50.152;8.182;2023-02-26T10:37:50;97700.59;;;2.69;83.31
31771;BME280;18343;50.152;8.182;2023-02-26T10:40:50;97706.88;;;2.78;83.05
31771;BME280;18343;50.152;8.182;2023-02-26T10:43:51;97716.56;;;3.08;82.55
31771;BME280;18343;50.152;8.182;2023-02-26T10:47:01;97718.66;;;2.94;82.44
31771;BME280;18343;50.152;8.182;2023-02-26T10:49:53;97719.63;;;3.03;81.62
31771;BME280;18343;50.152;8.182;2023-02-26T10:52:43;97728.31;;;3.05;81.04
31771;BME280;18343;50.152;8.182;2023-02-26T10:55:42;97726.63;;;3.04;79.46
31771;BME280;18343;50.152;8.182;2023-02-26T10:58:32;97734.00;;;2.81;80.50
31771;BME280;18343;50.152;8.182;2023-02-26T11:01:19;97733.63;;;3.05;79.71
31771;BME280;18343;50.152;8.182;2023-02-26T11:04:11;97733.75;;;3.03;78.35
31771;BME280;18343;50.152;8.182;2023-02-26T11:06:59;97730.41;;;3.21;80.13
31771;BME280;18343;50.152;8.182;2023-02-26T11:09:46;97729.00;;;3.55;80.88
31771;BME280;18343;50.152;8.182;2023-02-26T11:12:39;97728.19;;;3.45;79.04
31771;BME280;18343;50.152;8.182;2023-02-26T11:15:26;97721.41;;;3.70;80.51
31771;BME280;18343;50.152;8.182;2023-02-26T11:18:15;97727.03;;;3.57;80.37
31771;BME280;18343;50.152;8.182;2023-02-26T11:21:03;97732.44;;;3.85;76.32
31771;BME280;18343;50.152;8.182;2023-02-26T11:23:49;97726.50;;;4.10;78.10
31771;BME280;18343;50.152;8.182;2023-02-26T11:26:43;97726.25;;;3.94;74.63
31771;BME280;18343;50.152;8.182;2023-02-26T11:29:39;97728.97;;;3.74;75.44
31771;BME280;18343;50.152;8.182;2023-02-26T11:32:43;97742.41;;;3.73;73.67
31771;BME280;18343;50.152;8.182;2023-02-26T11:35:28;97741.47;;;3.55;73.22
31771;BME280;18343;50.152;8.182;2023-02-26T11:38:19;97731.09;;;3.42;74.38
31771;BME280;18343;50.152;8.182;2023-02-26T11:41:06;97744.09;;;3.06;71.83
31771;BME280;18343;50.152;8.182;2023-02-26T11:43:59;97737.09;;;3.05;73.17
31771;BME280;18343;50.152;8.182;2023-02-26T11:46:51;97730.69;;;3.08;71.71
31771;BME280;18343;50.152;8.182;2023-02-26T11:49:44;97732.34;;;3.28;72.23
31771;BME280;18343;50.152;8.182;2023-02-26T11:52:39;97726.50;;;3.54;73.82
31771;BME280;18343;50.152;8.182;2023-02-26T11:55:29;97723.94;;;3.71;73.54
31771;BME280;18343;50.152;8.182;2023-02-26T11:58:21;97722.69;;;3.66;73.16
31771;BME280;18343;50.152;8.182;2023-02-26T12:01:12;97726.47;;;3.73;73.26
31771;BME280;18343;50.152;8.182;2023-02-26T12:04:02;97724.94;;;3.61;71.81
31771;BME280;18343;50.152;8.182;2023-02-26T12:06:50;97728.69;;;3.68;72.17
31771;BME280;18343;50.152;8.182;2023-02-26T12:09:34;97724.69;;;3.45;71.54
31771;BME280;18343;50.152;8.182;2023-02-26T12:12:37;97730.94;;;3.72;71.93
31771;BME280;18343;50.152;8.182;2023-02-26T12:15:33;97728.22;;;3.92;71.76
31771;BME280;18343;50.152;8.182;2023-02-26T12:18:37;97742.41;;;3.63;68.77
31771;BME280;18343;50.152;8.182;2023-02-26T12:21:53;97741.56;;;3.72;69.40
31771;BME280;18343;50.152;8.182;2023-02-26T12:25:16;97726.28;;;3.84;68.96
31771;BME280;18343;50.152;8.182;2023-02-26T12:28:51;97739.88;;;3.81;68.61
31771;BME280;18343;50.152;8.182;2023-02-26T12:32:26;97732.06;;;3.60;68.87
31771;BME280;18343;50.152;8.182;2023-02-26T12:35:36;97741.88;;;3.50;68.01
31771;BME280;18343;50.152;8.182;2023-02-26T12:38:34;97738.81;;;3.26;67.81
31771;BME280;18343;50.152;8.182;2023-02-26T12:41:43;97741.47;;;3.26;69.07
31771;BME280;18343;50.152;8.182;2023-02-26T12:45:07;97751.38;;;3.33;68.87
31771;BME280;18343;50.152;8.182;2023-02-26T12:48:15;97739.91;;;3.62;66.68
31771;BME280;18343;50.152;8.182;2023-02-26T12:51:13;97749.28;;;3.66;67.89
31771;BME280;18343;50.152;8.182;2023-02-26T12:54:30;97747.19;;;3.60;67.10
31771;BME280;18343;50.152;8.182;2023-02-26T12:57:53;97748.75;;;3.24;66.21
31771;BME280;18343;50.152;8.182;2023-02-26T13:01:13;97748.47;;;3.27;65.77
31771;BME280;18343;50.152;8.182;2023-02-26T13:07:51;97750.00;;;3.49;64.32
31771;BME280;18343;50.152;8.182;2023-02-26T13:10:53;97756.69;;;3.62;66.01
31771;BME280;18343;50.152;8.182;2023-02-26T13:13:55;97762.00;;;3.62;64.83
31771;BME280;18343;50.152;8.182;2023-02-26T13:16:53;97762.44;;;3.67;65.78
31771;BME280;18343;50.152;8.182;2023-02-26T13:19:44;97768.44;;;3.69;65.28
31771;BME280;18343;50.152;8.182;2023-02-26T13:22:41;97772.38;;;3.65;64.86
31771;BME280;18343;50.152;8.182;2023-02-26T13:25:37;97765.94;;;3.58;65.13
31771;BME280;18343;50.152;8.182;2023-02-26T13:28:36;97761.31;;;3.70;65.39
31771;BME280;18343;50.152;8.182;2023-02-26T13:31:27;97770.00;;;3.62;64.44
31771;BME280;18343;50.152;8.182;2023-02-26T13:34:19;97773.50;;;3.63;64.84
31771;BME280;18343;50.152;8.182;2023-02-26T13:37:17;97777.13;;;3.62;64.84
31771;BME280;18343;50.152;8.182;2023-02-26T13:40:47;97779.91;;;3.89;64.38
31771;BME280;18343;50.152;8.182;2023-02-26T13:44:00;97774.47;;;3.62;64.51
31771;BME280;18343;50.152;8.182;2023-02-26T13:47:20;97779.09;;;3.69;63.95
31771;BME280;18343;50.152;8.182;2023-02-26T13:50:32;97788.31;;;3.65;63.89
31771;BME280;18343;50.152;8.182;2023-02-26T13:53:57;97782.31;;;3.83;63.98
31771;BME280;18343;50.152;8.182;2023-02-26T13:57:33;97784.09;;;3.92;63.55
31771;BME280;18343;50.152;8.182;2023-02-26T14:00:44;97783.44;;;3.70;63.31
31771;BME280;18343;50.152;8.182;2023-02-26T14:04:06;97780.34;;;3.75;63.38
31771;BME280;18343;50.152;8.182;2023-02-26T14:08:17;97778.81;;;3.82;63.40
31771;BME280;18343;50.152;8.182;2023-02-26T14:11:58;97784.13;;;3.63;62.93
31771;BME280;18343;50.152;8.182;2023-02-26T14:18:24;97787.09;;;3.50;63.70
31771;BME280;18343;50.152;8.182;2023-02-26T14:22:01;97783.53;;;3.88;63.82
31771;BME280;18343;50.152;8.182;2023-02-26T14:24:56;97789.56;;;3.90;63.82
31771;BME280;18343;50.152;8.182;2023-02-26T14:27:43;97789.38;;;4.11;63.53
31771;BME280;18343;50.152;8.182;2023-02-26T14:35:26;97790.31;;;4.29;62.93
31771;BME280;18343;50.152;8.182;2023-02-26T14:38:27;97784.81;;;4.40;63.26
31771;BME280;18343;50.152;8.182;2023-02-26T14:41:26;97784.09;;;4.38;60.40
31771;BME280;18343;50.152;8.182;2023-02-26T14:44:17;97787.78;;;4.37;61.69
31771;BME280;18343;50.152;8.182;2023-02-26T14:47:05;97792.63;;;4.42;61.30
31771;BME280;18343;50.152;8.182;2023-02-26T14:49:51;97795.78;;;4.37;61.70
31771;BME280;18343;50.152;8.182;2023-02-26T14:56:29;97788.25;;;4.14;60.15
31771;BME280;18343;50.152;8.182;2023-02-26T14:59:57;97793.88;;;4.01;59.96
31771;BME280;18343;50.152;8.182;2023-02-26T15:03:12;97793.47;;;3.86;59.74
31771;BME280;18343;50.152;8.182;2023-02-26T15:06:25;97789.41;;;3.92;59.90
31771;BME280;18343;50.152;8.182;2023-02-26T15:09:20;97797.84;;;3.78;59.54
31771;BME280;18343;50.152;8.182;2023-02-26T15:12:23;97801.63;;;3.75;59.24
31771;BME280;18343;50.152;8.182;2023-02-26T15:15:33;97799.53;;;3.79;59.09
31771;BME280;18343;50.152;8.182;2023-02-26T15:21:54;97809.03;;;3.33;59.18
31771;BME280;18343;50.152;8.182;2023-02-26T15:24:44;97808.06;;;3.53;59.31
31771;BME280;18343;50.152;8.182;2023-02-26T15:27:32;97813.81;;;3.78;59.37
31771;BME280;18343;50.152;8.182;2023-02-26T15:30:21;97809.06;;;3.52;59.60
31771;BME280;18343;50.152;8.182;2023-02-26T15:33:22;97826.38;;;3.27;58.69
31771;BME280;18343;50.152;8.182;2023-02-26T15:36:12;97833.94;;;3.42;58.71
31771;BME280;18343;50.152;8.182;2023-02-26T15:39:00;97827.09;;;3.49;58.72
31771;BME280;18343;50.152;8.182;2023-02-26T15:41:55;97827.09;;;3.58;58.42
31771;BME280;18343;50.152;8.182;2023-02-26T15:44:51;97826.66;;;3.44;58.29